createdAt,value
2023-02-19T00:54:33.407Z,9.23
2023-02-19T01:59:44.683Z,8.95
2023-02-19T02:09:41.218Z,8.88
2023-02-19T02:12:10.941Z,8.81
2023-02-19T02:14:50.780Z,8.80
2023-02-19T02:17:30.801Z,8.78
2023-02-19T02:20:35.463Z,8.77
2023-02-19T02:23:39.251Z,8.88
2023-02-19T02:26:59.501Z,8.75
2023-02-19T02:33:32.822Z,8.86
2023-02-19T02:39:55.685Z,8.74
2023-02-19T02:45:39.867Z,8.86
2023-02-19T02:49:06.080Z,8.78
2023-02-19T03:03:47.939Z,8.90
2023-02-19T03:06:32.029Z,8.84
2023-02-19T03:09:18.656Z,8.78
2023-02-19T03:12:12.025Z,8.76
2023-02-19T03:15:29.265Z,8.75
2023-02-19T03:40:34.609Z,8.78
2023-02-19T03:43:26.800Z,8.75
2023-02-19T04:01:26.404Z,8.66
2023-02-19T04:04:31.356Z,8.69
2023-02-19T04:07:45.535Z,8.66
2023-02-19T04:13:26.035Z,8.68
2023-02-19T04:15:57.352Z,8.76
2023-02-19T04:25:49.983Z,8.77
2023-02-19T04:31:27.870Z,8.73
2023-02-19T04:34:02.568Z,8.71
2023-02-19T04:40:26.546Z,8.81
2023-02-19T04:43:13.806Z,8.83
2023-02-19T04:45:42.611Z,8.76
2023-02-19T04:54:40.072Z,8.84
2023-02-19T04:57:28.566Z,8.84
2023-02-19T05:00:53.478Z,8.79
2023-02-19T05:09:37.880Z,8.78
2023-02-19T05:21:26.970Z,8.80
2023-02-19T05:24:32.182Z,8.79
2023-02-19T05:27:31.647Z,8.74
2023-02-19T05:39:46.490Z,8.78
2023-02-19T05:42:52.597Z,8.73
2023-02-19T05:57:58.492Z,8.71
2023-02-19T06:00:51.650Z,8.67
2023-02-19T06:03:20.600Z,8.71
2023-02-19T06:05:57.516Z,8.66
2023-02-19T06:08:42.948Z,8.57
2023-02-19T06:11:40.027Z,8.59
2023-02-19T06:14:29.837Z,8.52
2023-02-19T06:23:41.443Z,8.49
2023-02-19T06:35:43.628Z,8.51
2023-02-19T06:38:29.296Z,8.58
2023-02-19T06:49:40.433Z,8.61
2023-02-19T07:07:13.789Z,8.71
2023-02-19T07:20:17.946Z,8.79
2023-02-19T07:23:20.404Z,8.73
2023-02-19T08:01:19.638Z,9.32
2023-02-19T08:03:47.067Z,9.36
2023-02-19T08:06:14.212Z,9.38
2023-02-19T08:08:41.003Z,9.38
2023-02-19T08:11:26.399Z,9.40
2023-02-19T08:13:53.575Z,9.41
2023-02-19T08:16:30.026Z,9.42
2023-02-19T08:18:59.932Z,9.39
2023-02-19T08:21:26.711Z,9.43
2023-02-19T08:23:53.172Z,9.43
2023-02-19T08:26:19.627Z,9.45
2023-02-19T08:28:46.283Z,9.44
2023-02-19T08:31:13.285Z,9.44
2023-02-19T08:33:40.407Z,9.42
2023-02-19T08:36:08.902Z,9.41
2023-02-19T08:38:36.305Z,9.43
2023-02-19T08:41:11.712Z,9.40
2023-02-19T08:43:38.894Z,9.40
2023-02-19T08:46:06.924Z,9.41
2023-02-19T08:48:33.813Z,9.43
2023-02-19T08:51:05.391Z,9.44
2023-02-19T08:53:32.592Z,9.46
2023-02-19T08:55:59.089Z,9.44
2023-02-19T08:58:26.235Z,9.43
2023-02-19T09:00:53.074Z,9.41
2023-02-19T09:03:19.480Z,9.43
2023-02-19T09:05:46.753Z,9.42
2023-02-19T09:08:13.154Z,9.44
2023-02-19T09:10:39.715Z,9.42
2023-02-19T09:13:06.224Z,9.42
2023-02-19T09:15:33.320Z,9.45
2023-02-19T09:18:00.047Z,9.44
2023-02-19T09:20:26.526Z,9.48
2023-02-19T09:22:57.326Z,9.53
2023-02-19T09:25:23.792Z,9.55
2023-02-19T09:27:50.243Z,9.56
2023-02-19T09:30:16.724Z,9.59
2023-02-19T09:32:43.125Z,9.62
2023-02-19T09:35:09.526Z,9.62
2023-02-19T09:37:36.094Z,9.65
2023-02-19T09:40:02.610Z,9.73
2023-02-19T09:42:31.253Z,9.77
2023-02-19T09:44:59.559Z,9.81
2023-02-19T09:47:31.600Z,9.80
2023-02-19T09:50:06.898Z,9.86
2023-02-19T09:52:52.232Z,9.90
2023-02-19T09:55:39.117Z,9.96
2023-02-19T09:58:35.411Z,9.95
2023-02-19T10:01:03.854Z,9.99
2023-02-19T10:03:33.578Z,10.03
2023-02-19T10:06:05.026Z,10.14
2023-02-19T10:08:33.678Z,10.23
2023-02-19T10:11:01.269Z,10.19
2023-02-19T10:13:34.313Z,10.27
2023-02-19T10:16:02.350Z,10.29
2023-02-19T10:18:39.506Z,10.35
2023-02-19T10:21:06.207Z,10.41
2023-02-19T10:23:32.824Z,10.49
2023-02-19T10:25:59.846Z,10.46
2023-02-19T10:28:33.444Z,10.45
2023-02-19T10:31:01.835Z,10.45
2023-02-19T10:33:28.768Z,10.46
2023-02-19T10:36:07.812Z,10.49
2023-02-19T10:38:36.939Z,10.47
2023-02-19T10:41:20.744Z,10.50
2023-02-19T10:43:54.562Z,10.51
2023-02-19T10:46:33.264Z,10.53
2023-02-19T10:49:02.181Z,10.52
2023-02-19T10:51:34.571Z,10.54
2023-02-19T10:54:16.600Z,10.64
2023-02-19T10:56:43.114Z,10.72
2023-02-19T10:59:24.352Z,10.83
2023-02-19T11:01:55.160Z,10.92
2023-02-19T11:04:21.979Z,11.01
2023-02-19T11:06:48.441Z,11.00
2023-02-19T11:09:28.289Z,10.94
2023-02-19T11:11:56.434Z,10.91
2023-02-19T11:14:24.377Z,10.89
2023-02-19T11:16:56.390Z,10.85
2023-02-19T11:19:26.402Z,10.84
2023-02-19T11:21:53.560Z,10.86
2023-02-19T11:24:33.927Z,10.82
2023-02-19T11:27:02.976Z,10.80
2023-02-19T11:29:34.574Z,10.76
2023-02-19T11:32:25.372Z,10.76
2023-02-19T11:34:52.502Z,10.74
2023-02-19T11:37:21.042Z,10.72
2023-02-19T11:39:48.679Z,10.70
2023-02-19T11:42:29.276Z,10.72
2023-02-19T11:44:58.910Z,10.74
2023-02-19T11:47:43.346Z,10.73
2023-02-19T11:50:42.639Z,10.80
2023-02-19T11:53:25.019Z,10.87
2023-02-19T11:56:21.612Z,10.95
2023-02-19T11:58:54.088Z,10.98
2023-02-19T12:01:42.923Z,10.96
2023-02-19T12:04:31.911Z,10.95
2023-02-19T12:07:10.407Z,10.95
2023-02-19T12:09:43.548Z,10.97
2023-02-19T12:12:30.880Z,11.02
2023-02-19T12:15:21.957Z,11.09
2023-02-19T12:18:07.146Z,11.18
2023-02-19T12:20:44.104Z,11.28
2023-02-19T12:23:44.526Z,11.28
2023-02-19T12:26:24.955Z,11.27
2023-02-19T12:29:21.323Z,11.25
2023-02-19T12:32:23.411Z,11.27
2023-02-19T12:35:04.587Z,11.32
2023-02-19T12:38:02.072Z,11.38
2023-02-19T12:40:53.762Z,11.34
2023-02-19T12:43:22.019Z,11.26
2023-02-19T12:46:15.648Z,11.30
2023-02-19T12:48:48.578Z,11.31
2023-02-19T12:51:25.794Z,11.35
2023-02-19T12:54:06.192Z,11.39
2023-02-19T12:56:48.224Z,11.44
2023-02-19T12:59:22.639Z,11.44
2023-02-19T13:02:02.897Z,11.43
2023-02-19T13:05:01.973Z,11.46
2023-02-19T13:07:32.465Z,11.48
2023-02-19T13:10:26.826Z,11.52
2023-02-19T13:12:54.904Z,11.58
2023-02-19T13:15:28.547Z,11.65
2023-02-19T13:17:56.039Z,11.62
2023-02-19T13:20:32.707Z,11.59
2023-02-19T13:23:26.979Z,11.58
2023-02-19T13:26:19.654Z,11.60
2023-02-19T13:29:12.329Z,11.58
2023-02-19T13:32:09.435Z,11.58
2023-02-19T13:34:49.884Z,11.58
2023-02-19T13:37:16.923Z,11.57
2023-02-19T13:39:49.799Z,11.54
2023-02-19T13:42:33.493Z,11.55
2023-02-19T13:45:01.221Z,11.55
2023-02-19T13:47:59.758Z,11.57
2023-02-19T13:50:28.825Z,11.57
2023-02-19T13:52:56.231Z,11.56
2023-02-19T13:55:42.266Z,11.52
2023-02-19T13:58:33.409Z,11.48
2023-02-19T14:01:01.527Z,11.40
2023-02-19T14:03:39.975Z,11.41
2023-02-19T14:06:08.677Z,11.37
2023-02-19T14:08:56.854Z,11.35
2023-02-19T14:11:43.933Z,11.32
2023-02-19T14:14:41.382Z,11.25
2023-02-19T14:17:27.558Z,11.20
2023-02-19T14:19:59.419Z,11.16
2023-02-19T14:22:47.619Z,11.11
2023-02-19T14:25:49.393Z,11.10
2023-02-19T14:28:40.466Z,11.08
2023-02-19T14:31:19.825Z,11.05
2023-02-19T14:33:52.517Z,11.06
2023-02-19T14:36:26.533Z,11.09
2023-02-19T14:39:13.025Z,11.10
2023-02-19T14:41:42.715Z,11.13
2023-02-19T14:44:21.467Z,11.13
2023-02-19T14:46:52.843Z,11.15
2023-02-19T14:49:25.571Z,11.10
2023-02-19T14:51:55.123Z,11.07
2023-02-19T14:54:33.607Z,11.03
2023-02-19T14:57:00.826Z,10.99
2023-02-19T14:59:29.383Z,10.96
2023-02-19T15:02:04.377Z,10.95
2023-02-19T15:04:36.454Z,10.94
2023-02-19T15:07:06.629Z,10.94
2023-02-19T15:09:37.125Z,10.91
2023-02-19T15:12:03.973Z,10.91
2023-02-19T15:14:32.201Z,10.93
2023-02-19T15:17:04.108Z,10.91
2023-02-19T15:19:33.522Z,10.91
2023-02-19T15:22:00.110Z,10.93
2023-02-19T15:24:28.192Z,10.90
2023-02-19T15:26:55.028Z,10.86
2023-02-19T15:29:26.513Z,10.87
2023-02-19T15:31:59.114Z,10.87
2023-02-19T15:34:28.461Z,10.85
2023-02-19T15:36:58.528Z,10.87
2023-02-19T15:39:27.449Z,10.85
2023-02-19T15:42:00.202Z,10.82
2023-02-19T15:44:51.599Z,10.80
2023-02-19T15:47:23.593Z,10.82
2023-02-19T15:49:57.098Z,10.78
2023-02-19T15:52:36.306Z,10.80
2023-02-19T15:55:12.116Z,10.78
2023-02-19T15:57:43.304Z,10.71
2023-02-19T16:00:21.176Z,10.63
2023-02-19T16:02:48.654Z,10.47
2023-02-19T16:05:23.422Z,10.30
2023-02-19T16:08:25.670Z,10.14
2023-02-19T16:10:57.949Z,10.11
2023-02-19T16:13:30.157Z,9.99
2023-02-19T16:16:08.736Z,9.88
2023-02-19T16:18:35.394Z,9.87
2023-02-19T16:21:07.366Z,9.84
2023-02-19T16:23:33.934Z,9.86
2023-02-19T16:26:01.903Z,9.88
2023-02-19T16:28:33.089Z,9.88
2023-02-19T16:31:02.309Z,9.83
2023-02-19T16:33:37.984Z,9.84
2023-02-19T16:36:26.461Z,9.79
2023-02-19T16:39:08.173Z,9.73
2023-02-19T16:41:40.384Z,9.70
2023-02-19T16:44:25.055Z,9.64
2023-02-19T16:46:57.731Z,9.62
2023-02-19T16:49:24.421Z,9.61
2023-02-19T16:51:51.080Z,9.58
2023-02-19T16:54:18.742Z,9.57
2023-02-19T16:56:45.155Z,9.54
2023-02-19T16:59:11.663Z,9.52
2023-02-19T17:01:38.299Z,9.47
2023-02-19T17:04:07.130Z,9.47
2023-02-19T17:06:34.732Z,9.42
2023-02-19T17:09:01.121Z,9.42
2023-02-19T17:11:27.518Z,9.40
2023-02-19T17:13:53.907Z,9.39
2023-02-19T17:16:27.454Z,9.41
2023-02-19T17:18:54.922Z,9.41
2023-02-19T17:21:27.004Z,9.40
2023-02-19T17:23:54.050Z,9.40
2023-02-19T17:26:23.744Z,9.33
2023-02-19T17:28:50.338Z,9.34
2023-02-19T17:31:17.251Z,9.30
2023-02-19T17:33:43.999Z,9.26
2023-02-19T17:36:17.674Z,9.17
2023-02-19T17:38:44.216Z,9.10
2023-02-19T17:41:11.093Z,9.08
2023-02-19T17:43:37.788Z,9.05
2023-02-19T17:46:04.668Z,8.97
2023-02-19T17:48:31.379Z,9.01
2023-02-19T17:51:01.034Z,8.98
2023-02-19T17:53:27.861Z,9.00
2023-02-19T17:55:54.346Z,9.07
2023-02-19T17:58:20.972Z,9.07
2023-02-19T18:00:47.548Z,9.09
2023-02-19T18:03:14.239Z,9.07
2023-02-19T18:05:40.962Z,9.08
2023-02-19T18:08:07.676Z,9.11
2023-02-19T18:10:34.393Z,9.09
2023-02-19T18:13:00.950Z,9.12
2023-02-19T18:15:27.569Z,9.09
2023-02-19T18:17:54.768Z,9.11
2023-02-19T18:20:25.376Z,9.13
2023-02-19T18:22:52.051Z,9.15
2023-02-19T18:25:19.249Z,9.12
2023-02-19T18:27:46.898Z,9.18
2023-02-19T18:30:20.929Z,9.14
2023-02-19T18:32:48.548Z,9.07
2023-02-19T18:35:17.217Z,9.08
2023-02-19T18:37:43.871Z,9.10
2023-02-19T18:40:11.029Z,9.09
2023-02-19T18:42:37.622Z,9.05
2023-02-19T18:45:04.531Z,9.00
2023-02-19T18:47:31.182Z,8.97
2023-02-19T18:49:58.705Z,9.00
2023-02-19T18:52:26.585Z,9.01
2023-02-19T18:54:55.242Z,8.98
2023-02-19T18:57:23.713Z,8.97
2023-02-19T18:59:50.731Z,9.01
2023-02-19T19:02:17.727Z,8.95
2023-02-19T19:04:51.789Z,8.98
2023-02-19T19:07:18.988Z,8.99
2023-02-19T19:09:45.555Z,9.01
2023-02-19T19:12:12.524Z,8.94
2023-02-19T19:14:39.273Z,8.95
2023-02-19T19:17:05.823Z,8.94
2023-02-19T19:19:32.356Z,8.95
2023-02-19T19:21:58.915Z,8.98
2023-02-19T19:24:25.513Z,8.98
2023-02-19T19:26:52.939Z,8.97
2023-02-19T19:29:22.108Z,9.00
2023-02-19T19:31:49.433Z,8.96
2023-02-19T19:34:16.436Z,8.96
2023-02-19T19:36:43.372Z,8.98
2023-02-19T19:39:09.890Z,8.89
2023-02-19T19:41:36.408Z,8.90
2023-02-19T19:44:06.347Z,8.96
2023-02-19T19:46:33.368Z,8.94
2023-02-19T19:49:00.029Z,8.96
2023-02-19T19:51:34.191Z,8.96
2023-02-19T19:54:03.183Z,8.99
2023-02-19T19:56:30.215Z,8.89
2023-02-19T19:58:56.759Z,8.90
2023-02-19T20:01:23.687Z,8.97
2023-02-19T20:03:53.172Z,8.90
2023-02-19T20:06:29.433Z,9.04
2023-02-19T20:08:56.768Z,8.91
2023-02-19T20:11:23.556Z,8.96
2023-02-19T20:13:50.212Z,8.96
2023-02-19T20:16:16.771Z,9.00
2023-02-19T20:18:43.308Z,8.97
2023-02-19T20:21:11.169Z,8.99
2023-02-19T20:23:39.688Z,8.95
2023-02-19T20:26:06.815Z,8.95
2023-02-19T20:28:33.627Z,8.97
2023-02-19T20:31:00.469Z,8.95
2023-02-19T20:33:27.050Z,8.88
2023-02-19T20:35:53.669Z,8.95
2023-02-19T20:38:20.239Z,8.86
2023-02-19T20:40:46.877Z,8.89
2023-02-19T20:43:13.601Z,8.84
2023-02-19T20:45:41.046Z,8.91
2023-02-19T20:48:08.879Z,8.80
2023-02-19T20:50:35.489Z,8.86
2023-02-19T20:53:02.019Z,8.81
2023-02-19T20:55:28.729Z,8.84
2023-02-19T20:57:55.296Z,8.85
2023-02-19T21:00:22.058Z,8.91
2023-02-19T21:02:51.675Z,8.94
2023-02-19T21:05:20.002Z,8.92
2023-02-19T21:07:46.848Z,8.90
2023-02-19T21:10:13.730Z,8.99
2023-02-19T21:12:42.043Z,8.93
2023-02-19T21:15:09.160Z,8.85
2023-02-19T21:17:36.527Z,8.82
2023-02-19T21:20:06.640Z,8.87
2023-02-19T21:22:33.201Z,8.78
2023-02-19T21:25:00.273Z,8.82
2023-02-19T21:27:26.909Z,8.81
2023-02-19T21:29:53.531Z,8.78
2023-02-19T21:32:20.507Z,8.78
2023-02-19T21:34:47.357Z,8.80
2023-02-19T21:37:14.092Z,8.74
2023-02-19T21:39:42.933Z,8.78
2023-02-19T21:42:09.544Z,8.74
2023-02-19T21:44:36.442Z,8.74
2023-02-19T21:47:03.324Z,8.71
2023-02-19T21:49:30.319Z,8.75
2023-02-19T21:51:57.254Z,8.66
2023-02-19T21:54:25.346Z,8.65
2023-02-19T21:56:55.988Z,8.65
2023-02-19T21:59:22.907Z,8.66
2023-02-19T22:01:50.873Z,8.57
2023-02-19T22:04:21.448Z,8.69
2023-02-19T22:06:48.547Z,8.69
2023-02-19T22:09:15.518Z,8.69
2023-02-19T22:11:42.601Z,8.68
2023-02-19T22:14:15.366Z,8.65
2023-02-19T22:16:42.320Z,8.69
2023-02-19T22:19:09.981Z,8.63
2023-02-19T22:21:46.539Z,8.59
2023-02-19T22:24:17.820Z,8.65
2023-02-19T22:26:45.141Z,8.70
2023-02-19T22:29:16.346Z,8.66
2023-02-19T22:31:43.313Z,8.67
2023-02-19T22:34:10.431Z,8.67
2023-02-19T22:36:39.112Z,8.64
2023-02-19T22:39:07.974Z,8.61
2023-02-19T22:41:35.085Z,8.67
2023-02-19T22:44:18.045Z,8.66
2023-02-19T22:46:50.630Z,8.60
2023-02-19T22:49:17.794Z,8.51
2023-02-19T22:51:50.103Z,8.58
2023-02-19T22:54:17.358Z,8.60
2023-02-19T22:56:44.653Z,8.57
2023-02-19T22:59:21.218Z,8.50
2023-02-19T23:01:49.217Z,8.61
2023-02-19T23:04:16.869Z,8.62
2023-02-19T23:06:47.474Z,8.56
2023-02-19T23:09:20.796Z,8.62
2023-02-19T23:11:47.733Z,8.57
2023-02-19T23:14:18.566Z,8.59
2023-02-19T23:16:45.411Z,8.59
2023-02-19T23:19:15.185Z,8.62
2023-02-19T23:21:43.793Z,8.64
2023-02-19T23:24:11.626Z,8.61
2023-02-19T23:26:50.565Z,8.59
2023-02-19T23:29:21.482Z,8.59
2023-02-19T23:31:48.745Z,8.54
2023-02-19T23:34:16.939Z,8.46
2023-02-19T23:36:46.099Z,8.53
2023-02-19T23:39:13.700Z,8.57
2023-02-19T23:41:46.937Z,8.49
2023-02-19T23:44:13.793Z,8.49
2023-02-19T23:46:40.496Z,8.44
2023-02-19T23:49:07.822Z,8.49
2023-02-19T23:51:35.055Z,8.47
2023-02-19T23:54:01.943Z,8.42
2023-02-19T23:56:29.434Z,8.39
2023-02-19T23:58:56.679Z,8.43
